Main page
METAR-TAF:

METAR-TAF

Airports :

Coningsby, England

RAF Coningsby

latitude: 53-05N, longitude: 000-10W, elevation: 7 m

Current weather observation

The report was made 1 hour and 6 minutes ago, at 12:50 UTC
Wind 13 kt from the West/Southwest
Temperature 20°C
Humidity 60%
Pressure 1011 hPa
Visibility 10 km or more
Scattered clouds at a height of 3000 ft
Broken clouds at a height of 4000 ft

METAR: EGXC 241250Z 25013KT 9999 SCT030 BKN040 20/12 Q1011 BLU

Time: 14:56 (13:56 UTC)

Forecast

The report was made 3 hours and 29 minutes ago, at 10:27 UTC
Forecast valid from 24 at 12 UTC to 25 at 06 UTC
Wind 13 kt from the West
Visibility 10 km or more
Broken clouds at a height of 3000 ft
Temporary
from 25 at 05 UTC to 25 at 06 UTC
Broken clouds at a height of 2000 ft

TAF: EGXC 241027Z 2412/2506 26013KT 9999 BKN030 TEMPO 2505/2506 BKN020

Weather observations and forecasts of more than 4000 airports (METAR and TAF reports).

The available stations are represented by yellow and red dots on the map.

Hover mouse over dot to see the name of the station.

Then click to see weather observations and forecasts.

To change the map : click on the green buttons with a black cross to zoom in, on the green button with a dash to zoom out, or on the green arrows for adjacent maps.


METAR-TAF: